sensor_id;sensor_type;location;lat;lon;timestamp;P1;P2;P0
66195;PMS7003;53000;45.182;5.736;2023-10-13T00:01:55;9.75;9.00;7.75
66195;PMS7003;53000;45.182;5.736;2023-10-13T00:04:27;11.25;9.00;8.00
66195;PMS7003;53000;45.182;5.736;2023-10-13T00:06:54;13.50;11.00;8.75
66195;PMS7003;53000;45.182;5.736;2023-10-13T00:09:24;14.75;11.75;9.50
66195;PMS7003;53000;45.182;5.736;2023-10-13T00:12:02;13.25;13.25;10.00
66195;PMS7003;53000;45.182;5.736;2023-10-13T00:14:29;10.50;10.50;8.00
66195;PMS7003;53000;45.182;5.736;2023-10-13T00:17:02;13.00;11.50;9.00
66195;PMS7003;53000;45.182;5.736;2023-10-13T00:19:34;13.75;10.50;7.75
66195;PMS7003;53000;45.182;5.736;2023-10-13T00:22:07;10.25;9.75;9.00
66195;PMS7003;53000;45.182;5.736;2023-10-13T00:24:38;12.50;9.50;7.25
66195;PMS7003;53000;45.182;5.736;2023-10-13T00:27:11;10.75;9.50;8.25
66195;PMS7003;53000;45.182;5.736;2023-10-13T00:29:58;14.75;12.25;8.75
66195;PMS7003;53000;45.182;5.736;2023-10-13T00:32:44;13.50;11.00;8.00
66195;PMS7003;53000;45.182;5.736;2023-10-13T00:35:12;12.25;10.75;8.25
66195;PMS7003;53000;45.182;5.736;2023-10-13T00:37:39;13.50;8.00;7.00
66195;PMS7003;53000;45.182;5.736;2023-10-13T00:40:09;11.50;9.75;7.00
66195;PMS7003;53000;45.182;5.736;2023-10-13T00:42:51;13.00;10.25;7.75
66195;PMS7003;53000;45.182;5.736;2023-10-13T00:45:17;9.50;7.75;5.50
66195;PMS7003;53000;45.182;5.736;2023-10-13T00:47:43;9.00;9.00;8.00
66195;PMS7003;53000;45.182;5.736;2023-10-13T00:50:21;12.25;8.25;6.00
66195;PMS7003;53000;45.182;5.736;2023-10-13T00:52:48;15.25;12.25;8.25
66195;PMS7003;53000;45.182;5.736;2023-10-13T00:55:19;11.75;11.75;8.50
66195;PMS7003;53000;45.182;5.736;2023-10-13T00:57:53;13.25;11.25;8.75
66195;PMS7003;53000;45.182;5.736;2023-10-13T01:00:24;18.50;13.75;10.25
66195;PMS7003;53000;45.182;5.736;2023-10-13T01:02:52;17.75;14.50;10.50
66195;PMS7003;53000;45.182;5.736;2023-10-13T01:05:21;15.25;14.25;11.00
66195;PMS7003;53000;45.182;5.736;2023-10-13T01:07:47;15.50;13.00;9.75
66195;PMS7003;53000;45.182;5.736;2023-10-13T01:10:20;4.75;2.00;0.00
66195;PMS7003;53000;45.182;5.736;2023-10-13T01:12:51;14.25;11.00;9.50
66195;PMS7003;53000;45.182;5.736;2023-10-13T01:15:17;14.25;11.50;8.75
66195;PMS7003;53000;45.182;5.736;2023-10-13T01:17:46;12.75;12.50;9.25
66195;PMS7003;53000;45.182;5.736;2023-10-13T01:20:15;12.50;10.75;8.25
66195;PMS7003;53000;45.182;5.736;2023-10-13T01:22:49;11.25;10.00;7.50
66195;PMS7003;53000;45.182;5.736;2023-10-13T01:25:25;14.50;10.75;7.75
66195;PMS7003;53000;45.182;5.736;2023-10-13T01:27:53;9.25;8.50;6.75
66195;PMS7003;53000;45.182;5.736;2023-10-13T01:30:19;13.00;10.50;8.50
66195;PMS7003;53000;45.182;5.736;2023-10-13T01:32:50;13.75;11.25;10.00
66195;PMS7003;53000;45.182;5.736;2023-10-13T01:35:17;12.33;12.33;7.67
66195;PMS7003;53000;45.182;5.736;2023-10-13T01:37:44;9.50;9.50;7.00
66195;PMS7003;53000;45.182;5.736;2023-10-13T01:40:10;10.25;9.00;7.50
66195;PMS7003;53000;45.182;5.736;2023-10-13T01:42:37;10.00;10.00;8.00
66195;PMS7003;53000;45.182;5.736;2023-10-13T01:45:03;12.00;10.00;7.75
66195;PMS7003;53000;45.182;5.736;2023-10-13T01:47:31;10.50;9.25;8.00
66195;PMS7003;53000;45.182;5.736;2023-10-13T01:49:58;8.25;8.00;7.25
66195;PMS7003;53000;45.182;5.736;2023-10-13T01:52:31;10.75;9.75;8.25
66195;PMS7003;53000;45.182;5.736;2023-10-13T01:54:57;10.25;8.50;6.50
66195;PMS7003;53000;45.182;5.736;2023-10-13T01:57:26;13.50;11.75;9.75
66195;PMS7003;53000;45.182;5.736;2023-10-13T01:59:53;11.00;11.00;9.00
66195;PMS7003;53000;45.182;5.736;2023-10-13T02:02:20;12.25;11.25;7.50
66195;PMS7003;53000;45.182;5.736;2023-10-13T02:04:54;12.75;11.25;8.75
66195;PMS7003;53000;45.182;5.736;2023-10-13T02:07:22;10.00;10.00;7.50
66195;PMS7003;53000;45.182;5.736;2023-10-13T02:09:54;11.00;10.00;8.00
66195;PMS7003;53000;45.182;5.736;2023-10-13T02:12:20;10.25;9.00;7.75
66195;PMS7003;53000;45.182;5.736;2023-10-13T02:15:02;10.00;10.00;8.00
66195;PMS7003;53000;45.182;5.736;2023-10-13T02:17:29;14.50;11.00;8.00
66195;PMS7003;53000;45.182;5.736;2023-10-13T02:20:05;14.00;10.00;8.00
66195;PMS7003;53000;45.182;5.736;2023-10-13T02:22:34;8.25;8.00;7.75
66195;PMS7003;53000;45.182;5.736;2023-10-13T02:25:01;12.50;9.75;7.00
66195;PMS7003;53000;45.182;5.736;2023-10-13T02:27:32;9.00;7.25;6.75
66195;PMS7003;53000;45.182;5.736;2023-10-13T02:30:06;9.75;8.50;6.75
66195;PMS7003;53000;45.182;5.736;2023-10-13T02:32:38;13.00;10.25;8.00
66195;PMS7003;53000;45.182;5.736;2023-10-13T02:35:05;9.50;8.75;7.00
66195;PMS7003;53000;45.182;5.736;2023-10-13T02:37:33;9.00;8.25;7.00
66195;PMS7003;53000;45.182;5.736;2023-10-13T02:40:00;12.00;11.00;8.00
66195;PMS7003;53000;45.182;5.736;2023-10-13T02:42:26;9.00;7.50;6.00
66195;PMS7003;53000;45.182;5.736;2023-10-13T02:44:51;9.25;8.75;7.75
66195;PMS7003;53000;45.182;5.736;2023-10-13T02:47:20;14.75;12.25;7.75
66195;PMS7003;53000;45.182;5.736;2023-10-13T02:49:48;11.25;9.25;7.50
66195;PMS7003;53000;45.182;5.736;2023-10-13T02:52:14;10.75;10.75;8.50
66195;PMS7003;53000;45.182;5.736;2023-10-13T02:54:40;11.50;11.50;9.25
66195;PMS7003;53000;45.182;5.736;2023-10-13T02:57:12;9.00;9.00;7.50
66195;PMS7003;53000;45.182;5.736;2023-10-13T02:59:38;11.50;9.50;8.00
66195;PMS7003;53000;45.182;5.736;2023-10-13T03:02:06;10.25;8.50;8.00
66195;PMS7003;53000;45.182;5.736;2023-10-13T03:04:53;12.75;12.00;9.25
66195;PMS7003;53000;45.182;5.736;2023-10-13T03:07:35;10.25;10.25;8.00
66195;PMS7003;53000;45.182;5.736;2023-10-13T03:10:01;13.00;11.25;8.75
66195;PMS7003;53000;45.182;5.736;2023-10-13T03:12:36;11.75;10.00;7.75
66195;PMS7003;53000;45.182;5.736;2023-10-13T03:15:02;12.50;11.00;9.00
66195;PMS7003;53000;45.182;5.736;2023-10-13T03:17:44;10.00;10.00;7.75
66195;PMS7003;53000;45.182;5.736;2023-10-13T03:20:11;13.50;11.25;9.00
66195;PMS7003;53000;45.182;5.736;2023-10-13T03:22:38;12.00;11.25;9.50
66195;PMS7003;53000;45.182;5.736;2023-10-13T03:25:04;13.50;11.75;9.75
66195;PMS7003;53000;45.182;5.736;2023-10-13T03:27:30;13.50;12.75;10.00
66195;PMS7003;53000;45.182;5.736;2023-10-13T03:30:14;12.50;10.50;8.50
66195;PMS7003;53000;45.182;5.736;2023-10-13T03:32:40;14.00;13.00;10.25
66195;PMS7003;53000;45.182;5.736;2023-10-13T03:35:19;12.50;11.00;9.75
66195;PMS7003;53000;45.182;5.736;2023-10-13T03:37:53;13.75;12.00;9.50
66195;PMS7003;53000;45.182;5.736;2023-10-13T03:40:20;12.75;10.00;8.25
66195;PMS7003;53000;45.182;5.736;2023-10-13T03:42:46;12.50;11.75;9.50
66195;PMS7003;53000;45.182;5.736;2023-10-13T03:45:26;14.00;12.00;9.00
66195;PMS7003;53000;45.182;5.736;2023-10-13T03:47:52;11.50;10.50;8.00
66195;PMS7003;53000;45.182;5.736;2023-10-13T03:50:18;11.25;11.25;9.75
66195;PMS7003;53000;45.182;5.736;2023-10-13T03:52:57;12.25;10.25;8.50
66195;PMS7003;53000;45.182;5.736;2023-10-13T03:55:25;11.25;10.75;9.00
66195;PMS7003;53000;45.182;5.736;2023-10-13T03:57:54;20.75;17.50;10.75
66195;PMS7003;53000;45.182;5.736;2023-10-13T04:00:22;17.75;12.75;10.00
66195;PMS7003;53000;45.182;5.736;2023-10-13T04:02:53;16.50;12.50;9.00
66195;PMS7003;53000;45.182;5.736;2023-10-13T04:05:28;21.25;14.00;9.75
66195;PMS7003;53000;45.182;5.736;2023-10-13T04:08:26;12.50;12.00;10.00
66195;PMS7003;53000;45.182;5.736;2023-10-13T04:10:52;18.00;13.75;9.00
66195;PMS7003;53000;45.182;5.736;2023-10-13T04:13:18;16.25;12.00;9.25
66195;PMS7003;53000;45.182;5.736;2023-10-13T04:16:23;14.25;11.00;9.00
66195;PMS7003;53000;45.182;5.736;2023-10-13T04:18:49;16.00;13.50;11.00
66195;PMS7003;53000;45.182;5.736;2023-10-13T04:21:17;17.00;12.00;9.00
66195;PMS7003;53000;45.182;5.736;2023-10-13T04:24:20;13.00;11.50;9.00
66195;PMS7003;53000;45.182;5.736;2023-10-13T04:27:09;11.75;11.75;8.50
66195;PMS7003;53000;45.182;5.736;2023-10-13T04:29:37;14.00;12.75;9.75
66195;PMS7003;53000;45.182;5.736;2023-10-13T04:32:21;14.00;13.25;10.00
66195;PMS7003;53000;45.182;5.736;2023-10-13T04:34:57;16.75;11.00;9.00
66195;PMS7003;53000;45.182;5.736;2023-10-13T04:37:33;14.75;14.00;10.00
66195;PMS7003;53000;45.182;5.736;2023-10-13T04:40:15;11.25;11.00;8.25
66195;PMS7003;53000;45.182;5.736;2023-10-13T04:42:44;12.75;12.25;9.50
66195;PMS7003;53000;45.182;5.736;2023-10-13T04:45:15;11.50;10.25;9.00
66195;PMS7003;53000;45.182;5.736;2023-10-13T04:47:57;8.00;6.50;4.75
66195;PMS7003;53000;45.182;5.736;2023-10-13T04:50:48;11.50;10.75;9.00
66195;PMS7003;53000;45.182;5.736;2023-10-13T04:53:22;12.00;10.50;9.00
66195;PMS7003;53000;45.182;5.736;2023-10-13T04:55:59;13.25;12.50;9.75
66195;PMS7003;53000;45.182;5.736;2023-10-13T04:58:28;9.25;9.25;8.00
66195;PMS7003;53000;45.182;5.736;2023-10-13T05:01:01;14.00;11.50;9.25
66195;PMS7003;53000;45.182;5.736;2023-10-13T05:03:48;8.50;8.00;7.00
66195;PMS7003;53000;45.182;5.736;2023-10-13T05:06:33;13.00;12.00;9.00
66195;PMS7003;53000;45.182;5.736;2023-10-13T05:09:11;12.50;11.00;7.00
66195;PMS7003;53000;45.182;5.736;2023-10-13T05:11:55;12.75;11.75;9.75
66195;PMS7003;53000;45.182;5.736;2023-10-13T05:14:39;13.75;13.50;9.75
66195;PMS7003;53000;45.182;5.736;2023-10-13T05:17:23;12.75;11.50;9.00
66195;PMS7003;53000;45.182;5.736;2023-10-13T05:20:07;13.00;13.00;9.75
66195;PMS7003;53000;45.182;5.736;2023-10-13T05:22:51;16.00;14.00;11.00
66195;PMS7003;53000;45.182;5.736;2023-10-13T05:25:36;12.25;11.25;8.50
66195;PMS7003;53000;45.182;5.736;2023-10-13T05:28:20;14.00;10.75;9.00
66195;PMS7003;53000;45.182;5.736;2023-10-13T05:31:04;12.75;11.25;8.25
66195;PMS7003;53000;45.182;5.736;2023-10-13T05:33:50;16.75;15.00;11.75
66195;PMS7003;53000;45.182;5.736;2023-10-13T05:36:34;11.25;9.25;8.00
66195;PMS7003;53000;45.182;5.736;2023-10-13T05:39:18;12.00;10.50;8.50
66195;PMS7003;53000;45.182;5.736;2023-10-13T05:42:02;11.00;9.50;7.50
66195;PMS7003;53000;45.182;5.736;2023-10-13T05:44:46;11.00;10.50;9.00
66195;PMS7003;53000;45.182;5.736;2023-10-13T05:47:30;13.00;12.00;10.00
66195;PMS7003;53000;45.182;5.736;2023-10-13T05:50:07;12.75;11.25;9.00
66195;PMS7003;53000;45.182;5.736;2023-10-13T05:52:46;13.75;12.50;9.00
66195;PMS7003;53000;45.182;5.736;2023-10-13T05:55:21;13.75;13.00;10.50
66195;PMS7003;53000;45.182;5.736;2023-10-13T05:58:07;13.00;11.75;9.00
66195;PMS7003;53000;45.182;5.736;2023-10-13T06:00:53;12.25;10.75;9.50
66195;PMS7003;53000;45.182;5.736;2023-10-13T06:03:37;14.50;14.00;9.75
66195;PMS7003;53000;45.182;5.736;2023-10-13T06:06:21;10.50;8.50;7.00
66195;PMS7003;53000;45.182;5.736;2023-10-13T06:09:05;14.25;12.75;10.25
66195;PMS7003;53000;45.182;5.736;2023-10-13T06:11:49;13.25;11.00;9.50
66195;PMS7003;53000;45.182;5.736;2023-10-13T06:14:32;14.50;14.00;9.00
66195;PMS7003;53000;45.182;5.736;2023-10-13T06:17:36;14.00;12.75;10.50
66195;PMS7003;53000;45.182;5.736;2023-10-13T06:20:20;12.75;12.25;10.25
66195;PMS7003;53000;45.182;5.736;2023-10-13T06:23:04;14.00;12.75;10.25
66195;PMS7003;53000;45.182;5.736;2023-10-13T06:25:51;14.75;12.50;10.00
66195;PMS7003;53000;45.182;5.736;2023-10-13T06:28:36;12.50;11.50;10.00
66195;PMS7003;53000;45.182;5.736;2023-10-13T06:31:08;15.75;14.00;11.00
66195;PMS7003;53000;45.182;5.736;2023-10-13T06:33:40;12.75;12.25;10.00
66195;PMS7003;53000;45.182;5.736;2023-10-13T06:36:10;14.75;13.00;11.00
66195;PMS7003;53000;45.182;5.736;2023-10-13T06:38:38;14.25;12.25;10.25
66195;PMS7003;53000;45.182;5.736;2023-10-13T06:41:07;13.25;12.00;10.50
66195;PMS7003;53000;45.182;5.736;2023-10-13T06:43:34;15.25;13.50;9.75
66195;PMS7003;53000;45.182;5.736;2023-10-13T06:46:09;9.25;7.75;5.75
66195;PMS7003;53000;45.182;5.736;2023-10-13T06:48:41;16.00;14.50;11.25
66195;PMS7003;53000;45.182;5.736;2023-10-13T06:51:07;18.50;17.00;12.50
66195;PMS7003;53000;45.182;5.736;2023-10-13T06:53:50;17.25;15.00;12.50
66195;PMS7003;53000;45.182;5.736;2023-10-13T06:56:21;15.25;14.25;11.00
66195;PMS7003;53000;45.182;5.736;2023-10-13T06:58:47;19.00;16.75;12.50
66195;PMS7003;53000;45.182;5.736;2023-10-13T07:01:13;17.75;16.75;12.75
66195;PMS7003;53000;45.182;5.736;2023-10-13T07:03:47;16.50;15.25;12.00
66195;PMS7003;53000;45.182;5.736;2023-10-13T07:06:17;18.50;15.75;12.25
66195;PMS7003;53000;45.182;5.736;2023-10-13T07:08:44;16.00;15.75;12.00
66195;PMS7003;53000;45.182;5.736;2023-10-13T07:11:16;14.00;13.00;10.00
66195;PMS7003;53000;45.182;5.736;2023-10-13T07:14:00;15.25;15.25;12.50
66195;PMS7003;53000;45.182;5.736;2023-10-13T07:16:55;15.25;14.00;11.00
66195;PMS7003;53000;45.182;5.736;2023-10-13T07:19:25;15.50;14.50;10.25
66195;PMS7003;53000;45.182;5.736;2023-10-13T07:21:54;16.50;13.25;11.50
66195;PMS7003;53000;45.182;5.736;2023-10-13T07:24:27;16.50;14.00;11.00
66195;PMS7003;53000;45.182;5.736;2023-10-13T07:26:56;13.75;13.25;10.25
66195;PMS7003;53000;45.182;5.736;2023-10-13T07:29:28;15.75;14.75;11.00
66195;PMS7003;53000;45.182;5.736;2023-10-13T07:31:54;14.00;13.00;10.50
66195;PMS7003;53000;45.182;5.736;2023-10-13T07:34:19;11.50;10.00;7.25
66195;PMS7003;53000;45.182;5.736;2023-10-13T07:36:57;12.75;11.50;8.00
66195;PMS7003;53000;45.182;5.736;2023-10-13T07:39:27;13.50;13.50;11.75
66195;PMS7003;53000;45.182;5.736;2023-10-13T07:41:53;15.25;14.00;10.00
66195;PMS7003;53000;45.182;5.736;2023-10-13T07:44:19;14.25;13.00;11.25
66195;PMS7003;53000;45.182;5.736;2023-10-13T07:46:53;18.00;15.50;11.75
66195;PMS7003;53000;45.182;5.736;2023-10-13T07:49:28;15.75;13.75;9.75
66195;PMS7003;53000;45.182;5.736;2023-10-13T07:52:01;16.25;15.00;11.25
66195;PMS7003;53000;45.182;5.736;2023-10-13T07:54:46;13.75;13.25;9.50
66195;PMS7003;53000;45.182;5.736;2023-10-13T07:57:15;15.50;14.00;11.00
66195;PMS7003;53000;45.182;5.736;2023-10-13T07:59:41;13.25;12.00;9.25
66195;PMS7003;53000;45.182;5.736;2023-10-13T08:02:13;11.50;11.50;9.00
66195;PMS7003;53000;45.182;5.736;2023-10-13T08:04:59;14.00;12.25;9.25
66195;PMS7003;53000;45.182;5.736;2023-10-13T08:07:24;14.75;13.00;9.75
66195;PMS7003;53000;45.182;5.736;2023-10-13T08:09:53;15.75;13.75;10.00
66195;PMS7003;53000;45.182;5.736;2023-10-13T08:12:22;13.00;12.00;8.75
66195;PMS7003;53000;45.182;5.736;2023-10-13T08:14:48;14.00;13.25;10.75
66195;PMS7003;53000;45.182;5.736;2023-10-13T08:17:13;14.00;12.50;8.50
66195;PMS7003;53000;45.182;5.736;2023-10-13T08:19:39;13.25;11.50;8.50
66195;PMS7003;53000;45.182;5.736;2023-10-13T08:22:06;13.25;11.25;9.25
66195;PMS7003;53000;45.182;5.736;2023-10-13T08:24:44;15.00;12.75;9.75
66195;PMS7003;53000;45.182;5.736;2023-10-13T08:27:14;14.00;11.00;8.50
66195;PMS7003;53000;45.182;5.736;2023-10-13T08:30:00;15.50;13.50;10.00
66195;PMS7003;53000;45.182;5.736;2023-10-13T08:32:27;14.75;13.75;9.50
66195;PMS7003;53000;45.182;5.736;2023-10-13T08:34:57;15.75;13.25;9.00
66195;PMS7003;53000;45.182;5.736;2023-10-13T08:37:24;15.25;13.00;10.00
66195;PMS7003;53000;45.182;5.736;2023-10-13T08:39:51;13.50;11.00;9.75
66195;PMS7003;53000;45.182;5.736;2023-10-13T08:42:26;12.25;11.00;9.00
66195;PMS7003;53000;45.182;5.736;2023-10-13T08:47:53;12.25;11.25;9.00
66195;PMS7003;53000;45.182;5.736;2023-10-13T08:50:42;12.00;10.00;9.00
66195;PMS7003;53000;45.182;5.736;2023-10-13T08:53:31;13.00;13.00;10.00
66195;PMS7003;53000;45.182;5.736;2023-10-13T08:56:02;10.00;9.50;8.25
66195;PMS7003;53000;45.182;5.736;2023-10-13T09:01:18;14.50;10.25;9.00
66195;PMS7003;53000;45.182;5.736;2023-10-13T09:04:02;11.00;11.00;8.25
66195;PMS7003;53000;45.182;5.736;2023-10-13T09:06:49;10.25;8.50;7.00
66195;PMS7003;53000;45.182;5.736;2023-10-13T09:09:51;13.00;12.00;9.25
66195;PMS7003;53000;45.182;5.736;2023-10-13T09:12:16;8.00;8.00;7.00
66195;PMS7003;53000;45.182;5.736;2023-10-13T09:14:52;10.75;10.00;8.00
66195;PMS7003;53000;45.182;5.736;2023-10-13T09:17:43;10.75;9.25;7.00
66195;PMS7003;53000;45.182;5.736;2023-10-13T09:20:16;7.50;7.00;7.00
66195;PMS7003;53000;45.182;5.736;2023-10-13T09:22:57;10.75;9.00;7.00
66195;PMS7003;53000;45.182;5.736;2023-10-13T09:25:26;10.75;8.00;6.25
66195;PMS7003;53000;45.182;5.736;2023-10-13T09:27:58;9.00;7.75;7.50
66195;PMS7003;53000;45.182;5.736;2023-10-13T09:30:25;8.50;7.75;6.00
66195;PMS7003;53000;45.182;5.736;2023-10-13T09:33:03;8.25;8.25;6.00
66195;PMS7003;53000;45.182;5.736;2023-10-13T09:35:30;11.50;11.00;8.00
66195;PMS7003;53000;45.182;5.736;2023-10-13T09:37:59;9.25;7.75;6.50
66195;PMS7003;53000;45.182;5.736;2023-10-13T09:40:29;6.75;6.25;5.25
66195;PMS7003;53000;45.182;5.736;2023-10-13T09:42:58;10.00;7.75;5.50
66195;PMS7003;53000;45.182;5.736;2023-10-13T09:45:32;8.00;7.00;6.00
66195;PMS7003;53000;45.182;5.736;2023-10-13T09:48:05;7.25;6.25;5.25
66195;PMS7003;53000;45.182;5.736;2023-10-13T09:50:43;8.25;6.25;4.75
66195;PMS7003;53000;45.182;5.736;2023-10-13T09:53:11;8.00;8.00;6.00
66195;PMS7003;53000;45.182;5.736;2023-10-13T09:55:43;9.50;8.75;5.50
66195;PMS7003;53000;45.182;5.736;2023-10-13T09:58:13;7.00;6.25;5.25
66195;PMS7003;53000;45.182;5.736;2023-10-13T10:00:46;6.25;5.00;4.00
66195;PMS7003;53000;45.182;5.736;2023-10-13T10:03:32;10.00;8.25;5.25
66195;PMS7003;53000;45.182;5.736;2023-10-13T10:06:01;8.25;8.25;6.25
66195;PMS7003;53000;45.182;5.736;2023-10-13T10:08:42;6.25;6.25;5.25
66195;PMS7003;53000;45.182;5.736;2023-10-13T10:11:23;7.00;6.00;5.50
66195;PMS7003;53000;45.182;5.736;2023-10-13T10:14:12;6.75;6.25;5.00
66195;PMS7003;53000;45.182;5.736;2023-10-13T10:17:04;6.75;6.50;4.50
66195;PMS7003;53000;45.182;5.736;2023-10-13T10:19:44;7.00;7.00;5.25
66195;PMS7003;53000;45.182;5.736;2023-10-13T10:22:29;7.50;6.00;5.00
66195;PMS7003;53000;45.182;5.736;2023-10-13T10:25:01;6.25;5.00;4.00
66195;PMS7003;53000;45.182;5.736;2023-10-13T10:27:31;5.00;3.50;2.50
66195;PMS7003;53000;45.182;5.736;2023-10-13T10:29:57;8.00;7.00;5.00
66195;PMS7003;53000;45.182;5.736;2023-10-13T10:32:33;9.50;7.00;5.25
66195;PMS7003;53000;45.182;5.736;2023-10-13T10:35:06;5.25;5.25;3.50
66195;PMS7003;53000;45.182;5.736;2023-10-13T10:37:34;6.50;5.75;5.00
66195;PMS7003;53000;45.182;5.736;2023-10-13T10:40:06;8.00;8.00;6.00
66195;PMS7003;53000;45.182;5.736;2023-10-13T10:42:32;4.75;4.75;3.75
66195;PMS7003;53000;45.182;5.736;2023-10-13T10:44:59;6.50;5.75;5.00
66195;PMS7003;53000;45.182;5.736;2023-10-13T10:47:31;6.25;5.50;4.25
66195;PMS7003;53000;45.182;5.736;2023-10-13T10:49:58;8.75;7.00;6.00
66195;PMS7003;53000;45.182;5.736;2023-10-13T10:52:25;8.75;8.25;6.25
66195;PMS7003;53000;45.182;5.736;2023-10-13T10:54:59;10.50;9.00;7.00
66195;PMS7003;53000;45.182;5.736;2023-10-13T10:57:24;8.00;7.25;5.25
66195;PMS7003;53000;45.182;5.736;2023-10-13T10:59:54;9.25;8.00;7.00
66195;PMS7003;53000;45.182;5.736;2023-10-13T11:02:36;3.25;1.75;1.50
66195;PMS7003;53000;45.182;5.736;2023-10-13T11:05:03;7.00;7.00;6.00
66195;PMS7003;53000;45.182;5.736;2023-10-13T11:07:31;9.50;8.00;6.00
66195;PMS7003;53000;45.182;5.736;2023-10-13T11:10:06;5.25;5.00;4.00
66195;PMS7003;53000;45.182;5.736;2023-10-13T11:12:57;10.50;9.50;6.50
66195;PMS7003;53000;45.182;5.736;2023-10-13T11:15:43;10.50;9.00;7.00
66195;PMS7003;53000;45.182;5.736;2023-10-13T11:18:10;9.75;9.00;7.25
66195;PMS7003;53000;45.182;5.736;2023-10-13T11:20:43;8.25;8.00;7.00
66195;PMS7003;53000;45.182;5.736;2023-10-13T11:23:12;11.50;10.00;8.25
66195;PMS7003;53000;45.182;5.736;2023-10-13T11:25:38;10.00;7.75;7.00
66195;PMS7003;53000;45.182;5.736;2023-10-13T11:30:42;12.50;9.25;7.25
66195;PMS7003;53000;45.182;5.736;2023-10-13T11:33:15;9.00;9.00;6.00
66195;PMS7003;53000;45.182;5.736;2023-10-13T11:36:01;11.50;9.50;7.75
66195;PMS7003;53000;45.182;5.736;2023-10-13T11:38:29;10.75;10.00;8.00
66195;PMS7003;53000;45.182;5.736;2023-10-13T11:41:15;9.25;9.00;7.00
66195;PMS7003;53000;45.182;5.736;2023-10-13T11:46:14;6.75;6.75;6.00
66195;PMS7003;53000;45.182;5.736;2023-10-13T11:48:42;9.25;9.25;7.25
66195;PMS7003;53000;45.182;5.736;2023-10-13T11:51:09;11.50;9.75;7.75
66195;PMS7003;53000;45.182;5.736;2023-10-13T11:53:51;8.00;8.00;6.00
66195;PMS7003;53000;45.182;5.736;2023-10-13T11:56:17;15.75;9.75;7.25
66195;PMS7003;53000;45.182;5.736;2023-10-13T11:58:47;9.00;7.75;6.25
66195;PMS7003;53000;45.182;5.736;2023-10-13T12:01:13;9.50;9.25;8.00
66195;PMS7003;53000;45.182;5.736;2023-10-13T12:06:29;9.00;8.00;6.00
66195;PMS7003;53000;45.182;5.736;2023-10-13T12:09:07;9.00;8.25;7.00
66195;PMS7003;53000;45.182;5.736;2023-10-13T12:11:43;7.50;7.50;6.25
66195;PMS7003;53000;45.182;5.736;2023-10-13T12:14:13;9.00;7.25;6.50
66195;PMS7003;53000;45.182;5.736;2023-10-13T12:16:54;9.00;8.25;6.50
66195;PMS7003;53000;45.182;5.736;2023-10-13T12:19:21;9.00;8.50;6.25
66195;PMS7003;53000;45.182;5.736;2023-10-13T12:21:51;9.00;9.00;6.75
66195;PMS7003;53000;45.182;5.736;2023-10-13T12:24:23;10.50;9.00;7.50
66195;PMS7003;53000;45.182;5.736;2023-10-13T12:27:04;13.50;9.50;7.00
66195;PMS7003;53000;45.182;5.736;2023-10-13T12:29:49;10.50;10.50;7.25
66195;PMS7003;53000;45.182;5.736;2023-10-13T12:32:21;10.50;9.00;7.00
66195;PMS7003;53000;45.182;5.736;2023-10-13T12:34:56;11.00;11.00;8.75
66195;PMS7003;53000;45.182;5.736;2023-10-13T12:37:25;8.25;7.25;6.25
66195;PMS7003;53000;45.182;5.736;2023-10-13T12:40:18;7.75;7.75;6.75
66195;PMS7003;53000;45.182;5.736;2023-10-13T12:43:03;8.25;6.50;5.25
66195;PMS7003;53000;45.182;5.736;2023-10-13T12:45:48;7.25;7.25;6.50
66195;PMS7003;53000;45.182;5.736;2023-10-13T12:48:34;8.00;8.00;7.00
66195;PMS7003;53000;45.182;5.736;2023-10-13T12:51:20;7.50;6.50;5.75
66195;PMS7003;53000;45.182;5.736;2023-10-13T12:53:49;7.50;7.00;6.00
66195;PMS7003;53000;45.182;5.736;2023-10-13T12:56:16;9.00;8.50;6.25
66195;PMS7003;53000;45.182;5.736;2023-10-13T12:58:42;10.25;8.25;7.25
66195;PMS7003;53000;45.182;5.736;2023-10-13T13:01:17;8.50;8.00;6.25
66195;PMS7003;53000;45.182;5.736;2023-10-13T13:03:45;8.75;7.50;5.50
66195;PMS7003;53000;45.182;5.736;2023-10-13T13:06:22;5.25;4.75;3.75
66195;PMS7003;53000;45.182;5.736;2023-10-13T13:08:53;8.00;6.25;5.75
66195;PMS7003;53000;45.182;5.736;2023-10-13T13:11:19;7.25;5.75;4.50
66195;PMS7003;53000;45.182;5.736;2023-10-13T13:13:45;3.50;1.00;0.00
66195;PMS7003;53000;45.182;5.736;2023-10-13T13:16:12;5.00;5.00;3.00
66195;PMS7003;53000;45.182;5.736;2023-10-13T13:18:38;5.00;5.00;3.25
66195;PMS7003;53000;45.182;5.736;2023-10-13T13:21:04;2.50;2.50;2.25
66195;PMS7003;53000;45.182;5.736;2023-10-13T13:23:31;4.00;2.75;2.00
66195;PMS7003;53000;45.182;5.736;2023-10-13T13:25:59;2.25;1.00;0.00
66195;PMS7003;53000;45.182;5.736;2023-10-13T13:28:25;2.50;2.00;1.50
66195;PMS7003;53000;45.182;5.736;2023-10-13T13:30:53;1.25;0.00;0.00
66195;PMS7003;53000;45.182;5.736;2023-10-13T13:33:19;0.00;0.00;0.00
66195;PMS7003;53000;45.182;5.736;2023-10-13T13:35:49;4.25;2.00;1.00
66195;PMS7003;53000;45.182;5.736;2023-10-13T13:38:14;1.75;1.75;1.00
66195;PMS7003;53000;45.182;5.736;2023-10-13T13:40:47;2.25;1.00;1.00
66195;PMS7003;53000;45.182;5.736;2023-10-13T13:43:19;2.50;1.00;1.00
66195;PMS7003;53000;45.182;5.736;2023-10-13T13:46:06;2.00;2.00;1.00
66195;PMS7003;53000;45.182;5.736;2023-10-13T13:48:36;1.00;1.00;0.00
66195;PMS7003;53000;45.182;5.736;2023-10-13T13:51:03;0.75;0.75;0.75
66195;PMS7003;53000;45.182;5.736;2023-10-13T13:53:40;1.75;1.00;1.00
66195;PMS7003;53000;45.182;5.736;2023-10-13T13:56:13;2.50;1.00;1.00
66195;PMS7003;53000;45.182;5.736;2023-10-13T13:58:42;1.00;0.50;0.00
66195;PMS7003;53000;45.182;5.736;2023-10-13T14:01:11;0.75;0.50;0.25
66195;PMS7003;53000;45.182;5.736;2023-10-13T14:03:50;3.50;2.50;1.25
66195;PMS7003;53000;45.182;5.736;2023-10-13T14:06:17;2.50;1.25;1.25
66195;PMS7003;53000;45.182;5.736;2023-10-13T14:08:53;2.25;2.00;2.00
66195;PMS7003;53000;45.182;5.736;2023-10-13T14:11:20;1.00;1.00;1.00
66195;PMS7003;53000;45.182;5.736;2023-10-13T14:14:14;1.75;1.75;1.00
66195;PMS7003;53000;45.182;5.736;2023-10-13T14:16:50;2.00;1.75;1.00
66195;PMS7003;53000;45.182;5.736;2023-10-13T14:19:15;2.00;1.25;0.75
66195;PMS7003;53000;45.182;5.736;2023-10-13T14:22:00;2.50;2.50;2.00
66195;PMS7003;53000;45.182;5.736;2023-10-13T14:24:31;2.00;1.00;1.00
66195;PMS7003;53000;45.182;5.736;2023-10-13T14:27:08;2.25;2.25;1.25
66195;PMS7003;53000;45.182;5.736;2023-10-13T14:29:38;2.75;1.75;1.00
66195;PMS7003;53000;45.182;5.736;2023-10-13T14:32:10;0.50;0.00;0.00
66195;PMS7003;53000;45.182;5.736;2023-10-13T14:34:43;4.00;2.00;2.00
66195;PMS7003;53000;45.182;5.736;2023-10-13T14:37:09;3.00;2.00;1.00
66195;PMS7003;53000;45.182;5.736;2023-10-13T14:39:41;3.00;2.25;1.75
66195;PMS7003;53000;45.182;5.736;2023-10-13T14:42:07;3.00;3.00;2.00
66195;PMS7003;53000;45.182;5.736;2023-10-13T14:44:32;2.00;2.00;2.00
66195;PMS7003;53000;45.182;5.736;2023-10-13T14:46:58;2.75;2.75;2.00
66195;PMS7003;53000;45.182;5.736;2023-10-13T14:49:24;1.00;1.00;1.00
66195;PMS7003;53000;45.182;5.736;2023-10-13T14:51:50;3.00;2.00;2.00
66195;PMS7003;53000;45.182;5.736;2023-10-13T14:54:16;2.00;2.00;2.00
66195;PMS7003;53000;45.182;5.736;2023-10-13T14:56:41;2.25;2.25;2.25